Time;durP1;ratioP1;P1;durP2;ratioP2;P2;SDS_P1;SDS_P2;PMS_P1;PMS_P2;Temp;Humidity;BMP_temperature;BMP_pressure;BME280_temperature;BME280_humidity;BME280_pressure;Samples;Min_cycle;Max_cycle;Signal;HPM_P1;HPM_P2
2023/12/14 00:01:16;;;;;;;20.10;8.63;;;;;;;;;;4962398;28;20035;-76
2023/12/14 00:03:41;;;;;;;15.90;7.43;;;;;;;;;;4966772;28;20520;-76
2023/12/14 00:06:07;;;;;;;19.33;7.18;;;;;;;;;;4969390;28;20023;-75
2023/12/14 00:08:32;;;;;;;14.13;7.72;;;;;;;;;;4967987;28;20031;-75
2023/12/14 00:11:02;;;;;;;18.48;7.90;;;;;;;;;;4970071;28;20091;-76
2023/12/14 00:13:27;;;;;;;19.75;7.93;;;;;;;;;;4963111;28;20036;-76
2023/12/14 00:15:52;;;;;;;36.13;10.05;;;;;;;;;;4964252;28;20037;-75
2023/12/14 00:18:18;;;;;;;22.13;8.93;;;;;;;;;;4967080;28;20042;-76
2023/12/14 00:20:43;;;;;;;20.65;9.18;;;;;;;;;;4970305;28;20027;-76
2023/12/14 00:23:08;;;;;;;21.10;9.15;;;;;;;;;;4964569;28;20030;-76
2023/12/14 00:25:33;;;;;;;17.83;8.82;;;;;;;;;;4966245;28;20489;-75
2023/12/14 00:27:58;;;;;;;17.23;8.68;;;;;;;;;;4967382;28;20039;-76
2023/12/14 00:30:23;;;;;;;15.82;7.95;;;;;;;;;;4964462;28;20229;-76
2023/12/14 00:32:48;;;;;;;20.40;8.75;;;;;;;;;;4970129;28;20033;-75
2023/12/14 00:35:14;;;;;;;16.52;8.68;;;;;;;;;;4968438;28;20502;-76
2023/12/14 00:37:39;;;;;;;24.95;9.15;;;;;;;;;;4965984;28;20111;-76
2023/12/14 00:40:04;;;;;;;25.92;9.88;;;;;;;;;;4966405;28;20027;-76
2023/12/14 00:42:29;;;;;;;22.10;9.23;;;;;;;;;;4964364;28;20031;-76
2023/12/14 00:44:55;;;;;;;20.92;9.38;;;;;;;;;;4970118;28;20187;-76
2023/12/14 00:47:20;;;;;;;20.77;11.07;;;;;;;;;;4968508;28;20035;-76
2023/12/14 00:49:45;;;;;;;23.13;10.23;;;;;;;;;;4969995;28;20026;-75
2023/12/14 00:52:10;;;;;;;23.00;10.35;;;;;;;;;;4966685;28;20041;-76
2023/12/14 00:54:35;;;;;;;30.35;13.23;;;;;;;;;;4964074;28;20039;-76
2023/12/14 00:57:00;;;;;;;29.27;12.65;;;;;;;;;;4961865;28;20027;-76
2023/12/14 00:59:26;;;;;;;20.23;10.63;;;;;;;;;;4967930;28;20027;-76
2023/12/14 01:01:51;;;;;;;25.70;12.00;;;;;;;;;;4969319;28;20113;-75
2023/12/14 01:04:16;;;;;;;22.40;11.10;;;;;;;;;;4966239;28;20550;-76
2023/12/14 01:06:41;;;;;;;33.30;12.90;;;;;;;;;;4967650;28;20057;-75
2023/12/14 01:09:08;;;;;;;36.22;14.23;;;;;;;;;;4963887;28;20119;-76
2023/12/14 01:11:33;;;;;;;27.90;12.55;;;;;;;;;;4965441;28;20040;-76
2023/12/14 01:13:58;;;;;;;25.67;12.10;;;;;;;;;;4970060;28;20034;-76
2023/12/14 01:16:25;;;;;;;25.08;11.95;;;;;;;;;;4966869;28;20552;-75
2023/12/14 01:18:50;;;;;;;29.58;11.43;;;;;;;;;;4967048;28;20023;-76
2023/12/14 01:21:15;;;;;;;24.48;12.40;;;;;;;;;;4964158;28;20467;-76
2023/12/14 01:23:40;;;;;;;23.73;11.07;;;;;;;;;;4963587;28;20031;-76
2023/12/14 01:26:06;;;;;;;24.33;8.73;;;;;;;;;;4963572;28;20558;-76
2023/12/14 01:28:31;;;;;;;23.98;9.40;;;;;;;;;;4968347;28;20286;-76
2023/12/14 01:30:56;;;;;;;29.40;10.80;;;;;;;;;;4970650;28;20033;-76
2023/12/14 01:33:22;;;;;;;29.45;10.25;;;;;;;;;;4972130;28;20306;-76
2023/12/14 01:35:47;;;;;;;29.20;10.48;;;;;;;;;;4965253;28;20498;-76
2023/12/14 01:38:12;;;;;;;33.10;11.32;;;;;;;;;;4963750;28;20055;-76
2023/12/14 01:40:37;;;;;;;32.72;10.68;;;;;;;;;;4966368;28;20039;-75
2023/12/14 01:43:06;;;;;;;38.83;11.65;;;;;;;;;;4969275;28;20030;-76
2023/12/14 01:45:31;;;;;;;20.10;10.40;;;;;;;;;;4981014;28;20063;-76
2023/12/14 01:47:56;;;;;;;29.25;9.50;;;;;;;;;;4965831;28;20030;-76
2023/12/14 01:50:21;;;;;;;63.65;10.90;;;;;;;;;;4961951;28;20556;-75
2023/12/14 01:52:47;;;;;;;47.83;11.30;;;;;;;;;;4965889;28;20043;-76
2023/12/14 01:55:12;;;;;;;36.35;10.65;;;;;;;;;;4965973;28;20039;-75
2023/12/14 01:57:37;;;;;;;29.95;10.05;;;;;;;;;;4967622;28;20039;-76
2023/12/14 02:00:02;;;;;;;33.90;11.90;;;;;;;;;;4967260;28;20041;-76
2023/12/14 02:02:30;;;;;;;38.42;13.25;;;;;;;;;;4965782;28;20089;-75
2023/12/14 02:04:55;;;;;;;33.28;12.20;;;;;;;;;;4964333;28;20035;-76
2023/12/14 02:07:20;;;;;;;43.70;11.40;;;;;;;;;;4962822;28;20084;-75
2023/12/14 02:09:45;;;;;;;34.67;11.70;;;;;;;;;;4969142;28;20026;-76
2023/12/14 02:12:11;;;;;;;59.30;13.35;;;;;;;;;;4969048;28;20027;-76
2023/12/14 02:14:36;;;;;;;44.22;13.00;;;;;;;;;;4963749;28;20090;-74
2023/12/14 02:17:01;;;;;;;37.03;11.02;;;;;;;;;;4964615;28;20038;-75
2023/12/14 02:19:26;;;;;;;33.13;11.75;;;;;;;;;;4959392;28;20030;-76
2023/12/14 02:21:51;;;;;;;28.00;11.50;;;;;;;;;;4961426;28;20487;-76
2023/12/14 02:24:16;;;;;;;27.58;10.23;;;;;;;;;;4968366;28;20022;-76
2023/12/14 02:26:42;;;;;;;30.35;12.48;;;;;;;;;;4966740;28;20043;-76
2023/12/14 02:29:07;;;;;;;28.35;11.52;;;;;;;;;;4967397;28;20642;-76
2023/12/14 02:31:32;;;;;;;22.98;10.65;;;;;;;;;;4962239;28;20035;-75
2023/12/14 02:33:57;;;;;;;35.70;13.68;;;;;;;;;;4962575;28;20089;-76
2023/12/14 02:36:22;;;;;;;32.40;14.88;;;;;;;;;;4961881;28;20407;-76
2023/12/14 02:38:47;;;;;;;28.02;11.85;;;;;;;;;;4967781;28;20537;-76
2023/12/14 02:41:13;;;;;;;47.03;17.08;;;;;;;;;;4966781;28;20042;-76
2023/12/14 02:43:40;;;;;;;30.00;13.45;;;;;;;;;;4967278;28;20022;-76
2023/12/14 02:46:05;;;;;;;30.55;13.90;;;;;;;;;;4963299;28;20570;-75
2023/12/14 02:48:30;;;;;;;25.27;12.45;;;;;;;;;;4959152;28;20110;-75
2023/12/14 02:50:55;;;;;;;28.85;13.05;;;;;;;;;;4965449;28;20110;-75
2023/12/14 02:53:21;;;;;;;20.45;11.63;;;;;;;;;;4966732;28;20039;-75
2023/12/14 02:55:46;;;;;;;22.48;12.02;;;;;;;;;;4965667;28;20096;-75
2023/12/14 02:58:11;;;;;;;18.67;9.85;;;;;;;;;;4963978;28;20039;-76
2023/12/14 03:00:36;;;;;;;22.92;11.15;;;;;;;;;;4961561;28;20103;-76
2023/12/14 03:03:01;;;;;;;20.52;10.65;;;;;;;;;;4962134;28;20049;-76
2023/12/14 03:05:27;;;;;;;24.45;11.18;;;;;;;;;;4966271;28;20093;-75
2023/12/14 03:07:52;;;;;;;30.98;13.10;;;;;;;;;;4966608;28;20064;-76
2023/12/14 03:10:17;;;;;;;32.63;15.20;;;;;;;;;;4965818;28;20030;-75
2023/12/14 03:12:42;;;;;;;34.95;15.20;;;;;;;;;;4966569;28;20045;-76
2023/12/14 03:15:07;;;;;;;43.42;17.70;;;;;;;;;;4961632;28;20418;-75
2023/12/14 03:17:33;;;;;;;43.28;17.23;;;;;;;;;;4962387;28;20027;-75
2023/12/14 03:19:58;;;;;;;46.72;18.60;;;;;;;;;;4968553;28;20503;-76
2023/12/14 03:22:23;;;;;;;48.15;18.08;;;;;;;;;;4965087;28;20026;-75
2023/12/14 03:24:48;;;;;;;47.83;19.35;;;;;;;;;;4965390;28;20031;-75
2023/12/14 03:27:14;;;;;;;50.25;18.67;;;;;;;;;;4961823;28;20027;-75
2023/12/14 03:29:39;;;;;;;46.45;18.15;;;;;;;;;;4960730;28;20525;-75
2023/12/14 03:32:04;;;;;;;42.03;17.23;;;;;;;;;;4964932;28;20042;-75
2023/12/14 03:34:29;;;;;;;45.58;19.23;;;;;;;;;;4967380;28;20033;-75
2023/12/14 03:36:55;;;;;;;40.50;16.67;;;;;;;;;;4965567;28;20445;-75
2023/12/14 03:39:20;;;;;;;32.45;15.20;;;;;;;;;;4962813;28;20128;-75
2023/12/14 03:41:45;;;;;;;29.67;13.85;;;;;;;;;;4966518;28;20030;-75
2023/12/14 03:44:10;;;;;;;27.77;13.85;;;;;;;;;;4959790;28;20037;-76
2023/12/14 03:46:35;;;;;;;36.63;16.00;;;;;;;;;;4965862;28;20035;-75
2023/12/14 03:49:01;;;;;;;32.13;16.13;;;;;;;;;;4966701;28;20109;-76
2023/12/14 03:51:26;;;;;;;30.15;14.55;;;;;;;;;;4965383;28;20034;-76
2023/12/14 03:53:51;;;;;;;28.58;14.05;;;;;;;;;;4962909;28;20034;-75
2023/12/14 03:56:16;;;;;;;30.27;12.27;;;;;;;;;;4963421;28;20046;-76
2023/12/14 03:58:42;;;;;;;22.25;11.77;;;;;;;;;;4967202;28;20043;-76
2023/12/14 04:01:07;;;;;;;25.70;12.50;;;;;;;;;;4967948;28;20065;-76
2023/12/14 04:03:33;;;;;;;20.88;10.85;;;;;;;;;;4965278;28;20407;-76
2023/12/14 04:05:58;;;;;;;22.27;11.50;;;;;;;;;;4964935;28;20042;-75
2023/12/14 04:08:23;;;;;;;21.63;11.48;;;;;;;;;;4961283;28;20403;-76
2023/12/14 04:10:50;;;;;;;21.95;11.70;;;;;;;;;;4964797;28;20685;-75
2023/12/14 04:13:15;;;;;;;20.80;11.88;;;;;;;;;;4961680;28;20030;-76
2023/12/14 04:15:40;;;;;;;21.27;10.38;;;;;;;;;;4966373;28;20545;-76
2023/12/14 04:18:07;;;;;;;20.00;10.48;;;;;;;;;;4965186;28;20027;-76
2023/12/14 04:20:32;;;;;;;18.00;9.15;;;;;;;;;;4962216;28;20126;-76
2023/12/14 04:22:57;;;;;;;20.83;10.48;;;;;;;;;;4965989;28;20107;-77
2023/12/14 04:25:22;;;;;;;14.82;8.75;;;;;;;;;;4962079;28;20039;-77
2023/12/14 04:27:47;;;;;;;16.23;9.23;;;;;;;;;;4963173;28;20049;-73
2023/12/14 04:30:13;;;;;;;18.77;10.48;;;;;;;;;;4966641;28;20473;-74
2023/12/14 04:32:38;;;;;;;19.90;10.43;;;;;;;;;;4963500;28;20519;-74
2023/12/14 04:35:04;;;;;;;19.98;10.80;;;;;;;;;;4963989;28;20487;-75
2023/12/14 04:37:30;;;;;;;17.10;10.20;;;;;;;;;;4962344;28;20488;-74
2023/12/14 04:39:55;;;;;;;17.60;9.75;;;;;;;;;;4994496;23;20039;-76
2023/12/14 04:42:20;;;;;;;19.63;11.32;;;;;;;;;;4970645;28;20027;-76
2023/12/14 04:44:45;;;;;;;19.77;11.45;;;;;;;;;;4969229;28;20514;-74
2023/12/14 04:47:11;;;;;;;20.65;12.23;;;;;;;;;;4967654;28;20038;-75
2023/12/14 04:49:36;;;;;;;21.65;11.48;;;;;;;;;;4964301;28;20031;-75
2023/12/14 04:52:01;;;;;;;24.55;12.30;;;;;;;;;;4965077;28;20038;-76
2023/12/14 04:54:26;;;;;;;24.02;12.35;;;;;;;;;;4971921;28;20107;-76
2023/12/14 04:56:51;;;;;;;22.52;12.50;;;;;;;;;;4969780;28;20039;-76
2023/12/14 04:59:16;;;;;;;25.92;14.23;;;;;;;;;;4968664;28;20024;-76
2023/12/14 05:01:42;;;;;;;26.85;13.43;;;;;;;;;;4966523;28;20027;-76
2023/12/14 05:04:07;;;;;;;28.23;14.55;;;;;;;;;;4965915;28;20027;-76
2023/12/14 05:06:33;;;;;;;27.42;15.43;;;;;;;;;;4964102;28;20047;-76
2023/12/14 05:08:58;;;;;;;24.75;12.68;;;;;;;;;;4963574;28;20027;-76
2023/12/14 05:11:24;;;;;;;23.77;12.43;;;;;;;;;;4968503;28;20088;-76
2023/12/14 05:13:49;;;;;;;24.17;13.00;;;;;;;;;;4967310;28;20033;-75
2023/12/14 05:16:14;;;;;;;25.52;13.32;;;;;;;;;;4967713;28;20054;-75
2023/12/14 05:18:39;;;;;;;22.83;12.95;;;;;;;;;;4963511;28;20123;-75
2023/12/14 05:21:05;;;;;;;21.65;11.80;;;;;;;;;;4964490;28;20110;-76
2023/12/14 05:23:30;;;;;;;23.83;12.65;;;;;;;;;;4970149;28;20487;-75
2023/12/14 05:25:55;;;;;;;28.38;13.02;;;;;;;;;;4970125;28;20065;-78
2023/12/14 05:28:20;;;;;;;23.08;11.80;;;;;;;;;;4967267;28;20031;-78
2023/12/14 05:30:45;;;;;;;27.92;14.90;;;;;;;;;;4966251;28;20047;-78
2023/12/14 05:33:11;;;;;;;23.13;13.27;;;;;;;;;;4970012;28;20051;-77
2023/12/14 05:35:36;;;;;;;23.90;13.07;;;;;;;;;;4967985;28;20027;-78
2023/12/14 05:38:01;;;;;;;19.35;10.80;;;;;;;;;;4967757;28;20031;-78
2023/12/14 05:40:27;;;;;;;18.92;9.93;;;;;;;;;;4970082;28;20430;-78
2023/12/14 05:42:52;;;;;;;18.33;9.70;;;;;;;;;;4971617;28;20404;-77
2023/12/14 05:45:18;;;;;;;15.40;8.52;;;;;;;;;;4968381;28;20164;-78
2023/12/14 05:47:43;;;;;;;16.42;9.30;;;;;;;;;;4970432;28;20041;-78
2023/12/14 05:50:09;;;;;;;16.83;9.15;;;;;;;;;;4969662;28;20039;-78
2023/12/14 05:52:35;;;;;;;18.85;10.43;;;;;;;;;;4970913;28;20027;-78
2023/12/14 05:55:00;;;;;;;18.23;10.07;;;;;;;;;;4969971;28;20891;-78
2023/12/14 05:57:25;;;;;;;15.18;8.73;;;;;;;;;;4984952;28;20024;-78
2023/12/14 05:59:50;;;;;;;14.75;8.82;;;;;;;;;;4977451;28;20023;-78
2023/12/14 06:02:15;;;;;;;14.23;7.90;;;;;;;;;;4982472;28;20499;-78
2023/12/14 06:04:41;;;;;;;14.77;8.48;;;;;;;;;;4980164;28;20043;-78
2023/12/14 06:07:06;;;;;;;12.85;7.60;;;;;;;;;;4969261;28;20298;-78
2023/12/14 06:09:34;;;;;;;12.27;7.20;;;;;;;;;;4951749;28;20044;-78
2023/12/14 06:12:01;;;;;;;11.57;6.22;;;;;;;;;;4967328;28;20073;-78
2023/12/14 06:14:26;;;;;;;12.55;7.35;;;;;;;;;;4971267;28;20063;-78
2023/12/14 06:16:51;;;;;;;10.43;5.78;;;;;;;;;;4963756;28;20108;-78
2023/12/14 06:19:16;;;;;;;7.68;4.22;;;;;;;;;;4966929;28;20027;-78
2023/12/14 06:21:42;;;;;;;7.05;4.10;;;;;;;;;;4969963;28;20026;-78
2023/12/14 06:24:07;;;;;;;6.72;3.30;;;;;;;;;;4968789;28;20038;-78
2023/12/14 06:26:32;;;;;;;7.18;3.33;;;;;;;;;;4967208;28;20035;-78
2023/12/14 06:28:57;;;;;;;8.68;3.63;;;;;;;;;;4967983;28;20555;-78
2023/12/14 06:31:23;;;;;;;5.85;3.42;;;;;;;;;;4965644;28;20032;-78
2023/12/14 06:33:48;;;;;;;7.65;3.97;;;;;;;;;;4969384;28;20042;-78
2023/12/14 06:36:15;;;;;;;6.82;3.97;;;;;;;;;;4970195;28;20039;-78
2023/12/14 06:38:40;;;;;;;10.40;4.18;;;;;;;;;;4967526;28;20043;-78
2023/12/14 06:41:06;;;;;;;7.30;4.40;;;;;;;;;;4972118;28;20049;-78
2023/12/14 06:43:31;;;;;;;7.63;4.32;;;;;;;;;;4963490;28;20420;-78
2023/12/14 06:45:56;;;;;;;7.13;4.03;;;;;;;;;;4961176;28;20071;-78
2023/12/14 06:48:22;;;;;;;8.13;4.85;;;;;;;;;;4966249;28;20058;-78
2023/12/14 06:50:47;;;;;;;6.18;3.63;;;;;;;;;;4968844;28;20205;-78
2023/12/14 06:53:12;;;;;;;9.40;4.20;;;;;;;;;;4970127;28;20089;-78
2023/12/14 06:55:37;;;;;;;6.13;3.90;;;;;;;;;;4965986;28;20038;-78
2023/12/14 06:58:03;;;;;;;6.30;3.60;;;;;;;;;;4968512;28;20031;-78
2023/12/14 07:00:29;;;;;;;7.45;3.58;;;;;;;;;;4963220;28;20037;-78
2023/12/14 07:02:54;;;;;;;7.57;3.55;;;;;;;;;;4967535;28;20084;-78
2023/12/14 07:05:19;;;;;;;6.63;3.67;;;;;;;;;;4969525;28;20042;-78
2023/12/14 07:07:45;;;;;;;5.60;2.92;;;;;;;;;;4964577;28;20049;-78
2023/12/14 07:10:10;;;;;;;6.13;3.03;;;;;;;;;;4966468;28;20027;-78
2023/12/14 07:12:35;;;;;;;5.82;2.97;;;;;;;;;;4965738;28;20065;-78
2023/12/14 07:15:00;;;;;;;6.18;2.92;;;;;;;;;;4967110;28;20038;-78
2023/12/14 07:17:26;;;;;;;7.18;3.55;;;;;;;;;;4969004;28;20035;-78
2023/12/14 07:19:51;;;;;;;5.20;2.95;;;;;;;;;;4967655;28;20019;-78
2023/12/14 07:22:16;;;;;;;5.70;3.22;;;;;;;;;;4966177;28;20407;-78
2023/12/14 07:24:41;;;;;;;7.15;3.42;;;;;;;;;;4964051;28;20043;-78
2023/12/14 07:27:06;;;;;;;6.28;3.33;;;;;;;;;;4963563;28;20039;-78
2023/12/14 07:29:31;;;;;;;6.85;3.22;;;;;;;;;;4968230;28;20055;-78
2023/12/14 07:31:57;;;;;;;6.47;3.40;;;;;;;;;;4971012;28;20054;-78
2023/12/14 07:34:22;;;;;;;6.90;4.20;;;;;;;;;;4967857;28;20035;-78
2023/12/14 07:36:47;;;;;;;6.90;3.53;;;;;;;;;;4965443;28;20444;-78
2023/12/14 07:39:12;;;;;;;7.63;4.15;;;;;;;;;;4964042;28;20038;-78
2023/12/14 07:41:37;;;;;;;7.32;3.65;;;;;;;;;;4998557;28;20084;-78
2023/12/14 07:44:04;;;;;;;7.65;4.68;;;;;;;;;;4970902;28;20246;-78
2023/12/14 07:46:29;;;;;;;8.40;4.80;;;;;;;;;;4967924;28;20047;-78
2023/12/14 07:48:54;;;;;;;9.70;5.63;;;;;;;;;;4969592;28;20083;-78
2023/12/14 07:51:19;;;;;;;9.40;4.43;;;;;;;;;;4965665;28;20530;-78
2023/12/14 07:53:46;;;;;;;11.18;5.63;;;;;;;;;;4963825;28;20039;-78
2023/12/14 07:56:11;;;;;;;8.77;5.03;;;;;;;;;;4967885;28;20122;-78
2023/12/14 07:58:37;;;;;;;8.43;4.65;;;;;;;;;;4969440;28;20070;-78
2023/12/14 08:01:02;;;;;;;8.10;4.70;;;;;;;;;;4966866;28;20142;-78
2023/12/14 08:03:27;;;;;;;9.07;4.97;;;;;;;;;;4964712;28;20053;-78
2023/12/14 08:05:52;;;;;;;8.48;4.53;;;;;;;;;;4973045;28;20118;-78
2023/12/14 08:08:17;;;;;;;8.38;4.68;;;;;;;;;;4960470;28;20034;-78
2023/12/14 08:10:42;;;;;;;8.02;4.55;;;;;;;;;;4967250;28;20031;-78
2023/12/14 08:13:08;;;;;;;7.38;3.88;;;;;;;;;;4968881;28;20031;-78
2023/12/14 08:15:33;;;;;;;6.63;4.22;;;;;;;;;;4968393;28;20506;-78
2023/12/14 08:17:58;;;;;;;7.05;4.57;;;;;;;;;;4966233;28;20054;-78
2023/12/14 08:20:23;;;;;;;9.48;4.32;;;;;;;;;;4967118;28;20581;-78
2023/12/14 08:22:49;;;;;;;7.53;4.30;;;;;;;;;;4964286;28;20043;-78
2023/12/14 08:25:14;;;;;;;9.40;5.00;;;;;;;;;;4970637;28;20195;-78
2023/12/14 08:27:39;;;;;;;7.63;4.38;;;;;;;;;;4968416;28;20035;-78
2023/12/14 08:30:05;;;;;;;8.35;4.75;;;;;;;;;;4968876;28;20027;-78
2023/12/14 08:32:30;;;;;;;7.15;3.30;;;;;;;;;;4964487;28;20035;-78
2023/12/14 08:34:55;;;;;;;6.50;3.47;;;;;;;;;;4968752;28;20506;-77
2023/12/14 08:37:20;;;;;;;7.32;4.10;;;;;;;;;;4963719;28;20050;-77
2023/12/14 08:39:46;;;;;;;8.43;4.28;;;;;;;;;;4969571;28;20373;-76
2023/12/14 08:42:11;;;;;;;5.47;3.22;;;;;;;;;;4969015;28;20030;-77
2023/12/14 08:44:38;;;;;;;7.30;4.18;;;;;;;;;;4965636;28;20035;-76
2023/12/14 08:47:04;;;;;;;7.20;3.42;;;;;;;;;;4968575;28;20034;-76
2023/12/14 08:49:29;;;;;;;8.82;4.28;;;;;;;;;;4962550;28;20454;-76
2023/12/14 08:51:54;;;;;;;9.43;5.38;;;;;;;;;;4964859;28;20046;-76
2023/12/14 08:54:20;;;;;;;7.32;4.50;;;;;;;;;;4965115;28;20507;-76
2023/12/14 08:56:45;;;;;;;9.98;5.20;;;;;;;;;;4967740;28;20071;-76
2023/12/14 08:59:10;;;;;;;8.70;4.72;;;;;;;;;;4966930;28;20058;-76
2023/12/14 09:01:35;;;;;;;8.38;4.88;;;;;;;;;;4965611;28;20039;-76
2023/12/14 09:04:00;;;;;;;10.15;6.25;;;;;;;;;;4964020;28;20027;-76
2023/12/14 09:06:26;;;;;;;8.25;4.72;;;;;;;;;;4966747;28;20031;-77
2023/12/14 09:08:51;;;;;;;9.57;4.70;;;;;;;;;;4969062;28;20069;-76
2023/12/14 09:11:16;;;;;;;8.00;4.40;;;;;;;;;;4967789;28;20490;-76
2023/12/14 09:13:42;;;;;;;6.10;3.40;;;;;;;;;;4963232;28;20036;-76
2023/12/14 09:16:07;;;;;;;7.35;4.20;;;;;;;;;;4967088;28;20126;-76
2023/12/14 09:18:32;;;;;;;9.48;5.70;;;;;;;;;;4962582;28;20023;-76
2023/12/14 09:20:58;;;;;;;9.02;4.63;;;;;;;;;;4968371;28;20041;-76
2023/12/14 09:23:23;;;;;;;8.57;4.22;;;;;;;;;;4968754;28;20038;-76
2023/12/14 09:25:49;;;;;;;8.93;5.32;;;;;;;;;;4965797;28;20035;-76
2023/12/14 09:28:14;;;;;;;9.98;5.78;;;;;;;;;;4965396;28;20495;-76
2023/12/14 09:30:40;;;;;;;9.00;5.22;;;;;;;;;;4968021;28;20034;-77
2023/12/14 09:33:08;;;;;;;10.15;6.15;;;;;;;;;;4963329;28;20652;-76
2023/12/14 09:35:33;;;;;;;11.40;5.68;;;;;;;;;;4968704;28;20034;-76
2023/12/14 09:37:58;;;;;;;10.05;5.90;;;;;;;;;;4967242;28;20388;-76
2023/12/14 09:40:23;;;;;;;9.20;5.53;;;;;;;;;;4965599;28;20038;-76
2023/12/14 09:42:49;;;;;;;10.55;6.03;;;;;;;;;;4964059;28;20479;-76
2023/12/14 09:45:16;;;;;;;13.50;6.07;;;;;;;;;;4964677;28;20035;-76
2023/12/14 09:47:41;;;;;;;10.55;5.40;;;;;;;;;;4963823;28;20027;-76
2023/12/14 09:50:07;;;;;;;8.98;4.85;;;;;;;;;;4968752;28;20544;-76
2023/12/14 09:52:33;;;;;;;10.90;5.57;;;;;;;;;;4965648;28;20026;-77
2023/12/14 09:54:58;;;;;;;12.25;7.03;;;;;;;;;;4965494;28;20050;-76
2023/12/14 09:57:25;;;;;;;10.05;5.20;;;;;;;;;;4963170;28;20443;-76
2023/12/14 09:59:54;;;;;;;11.98;6.63;;;;;;;;;;4962437;28;20034;-76
2023/12/14 10:02:20;;;;;;;8.40;4.63;;;;;;;;;;4965493;28;20399;-77
2023/12/14 10:04:45;;;;;;;10.73;5.38;;;;;;;;;;4967019;28;20031;-76
2023/12/14 10:07:10;;;;;;;11.10;6.18;;;;;;;;;;4966527;28;20449;-77
2023/12/14 10:09:36;;;;;;;10.95;5.60;;;;;;;;;;4961306;28;20031;-76
2023/12/14 10:12:04;;;;;;;10.93;6.15;;;;;;;;;;4964095;28;20037;-76
2023/12/14 10:14:29;;;;;;;8.55;5.47;;;;;;;;;;4962685;28;20487;-76
2023/12/14 10:16:55;;;;;;;10.70;5.95;;;;;;;;;;4968236;28;20039;-77
2023/12/14 10:19:21;;;;;;;12.27;6.13;;;;;;;;;;4964662;28;20035;-76
2023/12/14 10:21:47;;;;;;;9.32;5.32;;;;;;;;;;4963981;28;20080;-76
2023/12/14 10:24:12;;;;;;;9.48;5.90;;;;;;;;;;4964392;28;20022;-76
2023/12/14 10:26:37;;;;;;;11.40;5.45;;;;;;;;;;4960208;28;20043;-76
2023/12/14 10:29:04;;;;;;;10.15;5.60;;;;;;;;;;4966099;28;20033;-76
2023/12/14 10:31:30;;;;;;;9.63;6.03;;;;;;;;;;4968564;28;20042;-76
2023/12/14 10:33:55;;;;;;;12.18;5.68;;;;;;;;;;4966419;28;20495;-77
2023/12/14 10:36:23;;;;;;;8.13;5.22;;;;;;;;;;4963456;28;20041;-77
2023/12/14 10:38:50;;;;;;;8.82;4.50;;;;;;;;;;4962645;28;20039;-76
2023/12/14 10:41:17;;;;;;;9.95;5.53;;;;;;;;;;4964923;28;20502;-77
2023/12/14 10:43:43;;;;;;;10.25;5.78;;;;;;;;;;4980995;28;20038;-77
2023/12/14 10:49:00;;;;;;;9.30;5.57;;;;;;;;;;5038238;28;20524;-75
2023/12/14 10:51:26;;;;;;;9.65;6.20;;;;;;;;;;5041711;28;20399;-75
2023/12/14 10:53:53;;;;;;;8.77;5.07;;;;;;;;;;5037321;28;20045;-75
2023/12/14 10:56:18;;;;;;;12.02;6.50;;;;;;;;;;5036085;28;20120;-75
2023/12/14 10:58:48;;;;;;;12.65;6.95;;;;;;;;;;5030619;28;20111;-75
2023/12/14 11:01:16;;;;;;;13.10;7.15;;;;;;;;;;5038822;28;20033;-75
2023/12/14 11:03:43;;;;;;;13.93;7.43;;;;;;;;;;5039114;28;20028;-75
2023/12/14 11:06:22;;;;;;;11.77;6.90;;;;;;;;;;5042777;28;20036;-76
2023/12/14 11:08:47;;;;;;;14.75;7.65;;;;;;;;;;5039867;28;20037;-75
2023/12/14 11:11:20;;;;;;;12.75;6.63;;;;;;;;;;5035359;28;20039;-75
2023/12/14 11:13:45;;;;;;;;;;;;;;;;;;5039929;28;20044;-75
2023/12/14 11:16:11;;;;;;;15.30;8.77;;;;;;;;;;5041821;28;19913;-75
2023/12/14 11:18:36;;;;;;;14.52;8.32;;;;;;;;;;5037814;28;20033;-75
2023/12/14 11:21:01;;;;;;;14.48;8.02;;;;;;;;;;5038273;28;20460;-75
2023/12/14 11:23:36;;;;;;;16.17;8.48;;;;;;;;;;5035036;28;20021;-75
2023/12/14 11:26:05;;;;;;;12.95;8.00;;;;;;;;;;5028941;28;20041;-75
2023/12/14 11:28:35;;;;;;;15.40;8.52;;;;;;;;;;5033087;28;20537;-75
2023/12/14 11:31:01;;;;;;;14.75;9.10;;;;;;;;;;5031603;28;20037;-75
2023/12/14 11:33:28;;;;;;;15.82;8.50;;;;;;;;;;5031512;28;20390;-75
2023/12/14 11:35:53;;;;;;;15.13;8.52;;;;;;;;;;5028147;28;21169;-75
2023/12/14 11:38:20;;;;;;;14.15;7.70;;;;;;;;;;5033527;28;20071;-75
2023/12/14 11:40:47;;;;;;;14.02;8.05;;;;;;;;;;5027936;28;20097;-75
2023/12/14 11:43:13;;;;;;;17.63;9.20;;;;;;;;;;5037036;28;20026;-75
2023/12/14 11:45:38;;;;;;;17.73;9.50;;;;;;;;;;5040066;28;20036;-75
2023/12/14 11:48:05;;;;;;;15.82;9.00;;;;;;;;;;5035843;28;20033;-75
2023/12/14 11:50:31;;;;;;;19.98;11.43;;;;;;;;;;5031710;28;20113;-75
2023/12/14 11:52:56;;;;;;;23.15;10.70;;;;;;;;;;5032480;28;20505;-75
2023/12/14 11:55:21;;;;;;;23.58;11.13;;;;;;;;;;5032603;28;20571;-76
2023/12/14 11:57:47;;;;;;;16.40;8.90;;;;;;;;;;5033136;28;20366;-75
2023/12/14 12:00:13;;;;;;;18.92;8.93;;;;;;;;;;5043524;28;20035;-76
2023/12/14 12:02:40;;;;;;;15.63;9.20;;;;;;;;;;5039942;28;20069;-75
2023/12/14 12:05:05;;;;;;;19.55;10.38;;;;;;;;;;5046018;28;20038;-75
2023/12/14 12:07:31;;;;;;;17.75;10.15;;;;;;;;;;5034561;28;20040;-75
2023/12/14 12:09:56;;;;;;;17.02;8.50;;;;;;;;;;5040265;28;20501;-75
2023/12/14 12:12:21;;;;;;;18.52;10.43;;;;;;;;;;5038948;28;20506;-75
2023/12/14 12:14:48;;;;;;;19.25;11.23;;;;;;;;;;5041685;28;20033;-75
2023/12/14 12:17:15;;;;;;;17.00;9.63;;;;;;;;;;5039679;28;20482;-75
2023/12/14 12:19:42;;;;;;;16.63;9.15;;;;;;;;;;5044629;28;20043;-75
2023/12/14 12:22:07;;;;;;;15.20;8.85;;;;;;;;;;5041312;28;20037;-76
2023/12/14 12:24:33;;;;;;;17.33;9.30;;;;;;;;;;5042853;28;20106;-75
2023/12/14 12:26:58;;;;;;;16.73;9.68;;;;;;;;;;5042918;28;20029;-75
2023/12/14 12:29:23;;;;;;;18.42;9.90;;;;;;;;;;5044370;28;20120;-75
2023/12/14 12:31:48;;;;;;;18.30;10.63;;;;;;;;;;5045522;28;20044;-75
2023/12/14 12:34:14;;;;;;;15.90;9.02;;;;;;;;;;5041732;28;20041;-75
2023/12/14 12:36:39;;;;;;;16.85;8.43;;;;;;;;;;5042267;28;20447;-75
2023/12/14 12:39:06;;;;;;;16.35;8.48;;;;;;;;;;5042195;28;20524;-75
2023/12/14 12:41:36;;;;;;;14.20;8.18;;;;;;;;;;5059256;28;20082;-75
2023/12/14 12:44:05;;;;;;;12.75;7.60;;;;;;;;;;5043445;28;20393;-74
2023/12/14 12:46:31;;;;;;;13.30;8.48;;;;;;;;;;5057087;28;20033;-73
2023/12/14 12:48:56;;;;;;;16.17;8.43;;;;;;;;;;5056856;28;20527;-73
2023/12/14 12:51:22;;;;;;;12.43;8.25;;;;;;;;;;5038840;28;20069;-75
2023/12/14 12:53:47;;;;;;;13.57;7.82;;;;;;;;;;5043507;28;20025;-74
2023/12/14 12:56:12;;;;;;;16.63;9.52;;;;;;;;;;5043582;28;20300;-75
2023/12/14 12:58:37;;;;;;;13.85;8.18;;;;;;;;;;5040269;28;20033;-75
2023/12/14 13:01:03;;;;;;;13.88;8.00;;;;;;;;;;5041472;28;20044;-75
2023/12/14 13:03:28;;;;;;;14.55;7.93;;;;;;;;;;5037196;28;20022;-75
2023/12/14 13:05:53;;;;;;;15.32;9.27;;;;;;;;;;5039623;28;20087;-74
2023/12/14 13:08:18;;;;;;;16.70;9.93;;;;;;;;;;5043392;28;20048;-75
2023/12/14 13:10:43;;;;;;;15.95;8.65;;;;;;;;;;5034535;28;20033;-75
2023/12/14 13:13:09;;;;;;;15.32;8.80;;;;;;;;;;5044086;28;20417;-75
2023/12/14 13:15:35;;;;;;;17.17;9.52;;;;;;;;;;5038046;28;20044;-75
2023/12/14 13:18:00;;;;;;;14.48;8.52;;;;;;;;;;5037455;28;20379;-75
2023/12/14 13:20:25;;;;;;;13.82;8.05;;;;;;;;;;5040901;28;20052;-75
2023/12/14 13:22:50;;;;;;;13.85;8.18;;;;;;;;;;5057914;28;20363;-75
2023/12/14 13:25:16;;;;;;;13.15;8.50;;;;;;;;;;5044232;28;20029;-75
2023/12/14 13:27:41;;;;;;;11.57;6.55;;;;;;;;;;5055981;28;20465;-74
2023/12/14 13:30:06;;;;;;;11.40;6.90;;;;;;;;;;5042072;28;20033;-75
2023/12/14 13:32:32;;;;;;;11.73;6.88;;;;;;;;;;5044001;28;20025;-75
2023/12/14 13:34:57;;;;;;;12.43;7.28;;;;;;;;;;5041336;28;20021;-75
2023/12/14 13:37:22;;;;;;;11.88;7.32;;;;;;;;;;5042906;28;20542;-75
2023/12/14 13:39:48;;;;;;;13.00;7.93;;;;;;;;;;5043144;28;20022;-73
2023/12/14 13:42:15;;;;;;;11.23;6.53;;;;;;;;;;5043375;28;20024;-75
2023/12/14 13:44:41;;;;;;;11.05;7.15;;;;;;;;;;5040452;28;20037;-75
2023/12/14 13:47:06;;;;;;;13.40;7.88;;;;;;;;;;5041136;28;20033;-74
2023/12/14 13:49:32;;;;;;;12.05;7.50;;;;;;;;;;5042742;28;20060;-74
2023/12/14 13:51:57;;;;;;;11.52;6.55;;;;;;;;;;5035813;28;20407;-75
2023/12/14 13:54:22;;;;;;;13.75;6.15;;;;;;;;;;5042090;28;20104;-74
2023/12/14 13:56:48;;;;;;;13.05;6.13;;;;;;;;;;5041619;28;20128;-74
2023/12/14 13:59:13;;;;;;;10.73;6.60;;;;;;;;;;5038309;28;20057;-74
2023/12/14 14:01:38;;;;;;;11.82;6.85;;;;;;;;;;5037120;28;20033;-75
2023/12/14 14:04:03;;;;;;;12.90;7.00;;;;;;;;;;5039007;28;20033;-74
2023/12/14 14:06:29;;;;;;;10.55;6.75;;;;;;;;;;5041651;28;20459;-74
2023/12/14 14:08:54;;;;;;;9.38;5.80;;;;;;;;;;5045118;28;20025;-74
2023/12/14 14:11:20;;;;;;;11.88;5.85;;;;;;;;;;5035222;28;20041;-73
2023/12/14 14:13:45;;;;;;;9.77;5.63;;;;;;;;;;5037106;28;20051;-74
2023/12/14 14:16:10;;;;;;;8.50;5.30;;;;;;;;;;5037506;28;20030;-74
2023/12/14 14:18:35;;;;;;;9.07;5.68;;;;;;;;;;5041197;28;20025;-74
2023/12/14 14:21:01;;;;;;;8.95;5.22;;;;;;;;;;5041997;28;20055;-74